Time;durP1;ratioP1;P1;durP2;ratioP2;P2;SDS_P1;SDS_P2;PMS_P1;PMS_P2;Temp;Humidity;BMP_temperature;BMP_pressure;BME280_temperature;BME280_humidity;BME280_pressure;Samples;Min_cycle;Max_cycle;Signal;HPM_P1;HPM_P2
2023/12/07 00:00:47;;;;;;;160.13;108.85;;;;;;;13.17;nan;99072.38;5084399;28;20683;-70
2023/12/07 00:03:16;;;;;;;157.90;108.53;;;;;;;13.05;nan;99065.97;5084943;28;20113;-69
2023/12/07 00:05:46;;;;;;;160.90;107.63;;;;;;;13.05;nan;99060.66;5081465;28;20052;-69
2023/12/07 00:08:15;;;;;;;161.82;107.65;;;;;;;12.99;nan;99064.91;5086452;28;20050;-70
2023/12/07 00:10:45;;;;;;;155.52;105.43;;;;;;;13.13;nan;99067.66;5084484;28;20105;-70
2023/12/07 00:13:14;;;;;;;165.60;105.47;;;;;;;13.17;nan;99063.56;5085516;28;20052;-70
2023/12/07 00:15:44;;;;;;;156.43;107.25;;;;;;;13.10;nan;99068.03;5085400;28;20051;-70
2023/12/07 00:18:13;;;;;;;155.45;105.50;;;;;;;13.01;nan;99073.50;5084344;28;20101;-69
2023/12/07 00:20:43;;;;;;;152.43;104.63;;;;;;;13.00;nan;99074.53;5084421;28;20052;-70
2023/12/07 00:23:12;;;;;;;165.18;109.78;;;;;;;12.87;nan;99073.66;5069946;28;20044;-69
2023/12/07 00:25:42;;;;;;;152.13;107.18;;;;;;;13.06;nan;99076.38;5079176;28;20048;-70
2023/12/07 00:28:11;;;;;;;158.05;107.05;;;;;;;12.98;nan;99075.75;5085697;28;20163;-69
2023/12/07 00:30:42;;;;;;;150.38;104.88;;;;;;;12.88;nan;99078.75;5085863;28;20109;-70
2023/12/07 00:33:11;;;;;;;147.38;107.50;;;;;;;12.84;nan;99082.00;5062061;28;20106;-69
2023/12/07 00:35:40;;;;;;;151.02;106.65;;;;;;;12.82;nan;99081.41;5083191;28;20121;-70
2023/12/07 00:38:10;;;;;;;165.10;108.38;;;;;;;12.93;nan;99083.50;5078894;28;20757;-69
2023/12/07 00:40:40;;;;;;;170.88;109.88;;;;;;;12.80;nan;99081.59;5081132;28;20048;-70
2023/12/07 00:43:09;;;;;;;159.40;106.93;;;;;;;12.86;nan;99082.66;5066163;28;20125;-70
2023/12/07 00:45:39;;;;;;;154.30;106.50;;;;;;;12.82;nan;99082.22;5095698;28;20043;-70
2023/12/07 00:48:08;;;;;;;148.35;104.38;;;;;;;12.72;nan;99087.06;5081886;28;21339;-69
2023/12/07 00:50:39;;;;;;;156.43;107.30;;;;;;;12.79;nan;99090.56;5085272;28;20417;-71
2023/12/07 00:53:08;;;;;;;158.95;108.25;;;;;;;12.90;nan;99097.19;5067218;28;20040;-68
2023/12/07 00:55:40;;;;;;;156.32;107.43;;;;;;;12.79;nan;99100.41;5085644;28;20040;-70
2023/12/07 00:58:10;;;;;;;152.98;105.18;;;;;;;12.82;nan;99100.00;5083025;28;20742;-70
2023/12/07 01:00:39;;;;;;;160.43;109.28;;;;;;;12.94;nan;99087.78;5083695;28;20052;-70
2023/12/07 01:03:08;;;;;;;162.20;106.75;;;;;;;12.81;nan;99088.56;5082179;28;20491;-68
2023/12/07 01:05:38;;;;;;;160.50;106.65;;;;;;;12.71;nan;99100.56;5086103;28;20475;-69
2023/12/07 01:08:07;;;;;;;158.73;107.53;;;;;;;12.64;nan;99092.56;5086939;28;20040;-68
2023/12/07 01:10:37;;;;;;;153.93;105.18;;;;;;;12.77;nan;99099.78;5093001;28;20048;-68
2023/12/07 01:13:06;;;;;;;152.30;106.72;;;;;;;12.68;nan;99098.31;5084287;28;20056;-68
2023/12/07 01:15:36;;;;;;;154.90;106.13;;;;;;;12.64;nan;99102.38;5094820;28;20058;-68
2023/12/07 01:18:05;;;;;;;151.90;105.18;;;;;;;12.59;nan;99109.09;5080423;28;20056;-68
2023/12/07 01:20:35;;;;;;;149.13;105.95;;;;;;;12.61;nan;99108.91;5069782;28;20131;-69
2023/12/07 01:23:04;;;;;;;152.65;103.75;;;;;;;12.64;nan;99119.13;5082523;28;20536;-68
2023/12/07 01:25:34;;;;;;;151.05;105.13;;;;;;;12.59;nan;99124.22;5083242;28;20093;-69
2023/12/07 01:28:04;;;;;;;147.25;104.40;;;;;;;12.54;nan;99116.81;5083290;28;20062;-69
2023/12/07 01:30:33;;;;;;;155.57;103.50;;;;;;;12.54;nan;99122.13;5083955;28;20052;-68
2023/12/07 01:33:03;;;;;;;154.93;105.45;;;;;;;12.58;nan;99122.56;5074178;28;20044;-68
2023/12/07 01:35:32;;;;;;;157.35;106.82;;;;;;;12.52;nan;99124.16;5078972;28;20059;-68
2023/12/07 01:38:02;;;;;;;146.43;102.55;;;;;;;12.50;nan;99139.47;5074403;28;20048;-68
2023/12/07 01:40:32;;;;;;;146.80;105.00;;;;;;;12.44;nan;99131.44;5078343;28;20466;-70
2023/12/07 01:43:01;;;;;;;152.75;104.10;;;;;;;12.61;nan;99130.94;5051169;28;20063;-62
2023/12/07 01:45:31;;;;;;;152.50;105.10;;;;;;;12.61;nan;99133.63;5076842;28;20040;-62
2023/12/07 01:48:00;;;;;;;146.93;104.03;;;;;;;12.63;nan;99135.25;5085213;28;20048;-62
2023/12/07 01:50:31;;;;;;;148.38;104.78;;;;;;;12.57;nan;99132.38;5083926;28;20055;-62
2023/12/07 01:53:04;;;;;;;157.60;107.22;;;;;;;12.54;nan;99139.91;5084848;28;20068;-62
2023/12/07 01:55:37;;;;;;;152.60;103.97;;;;;;;12.63;nan;99141.41;5078111;28;20036;-62
2023/12/07 01:58:07;;;;;;;156.70;103.80;;;;;;;12.58;nan;99136.66;5084777;28;20055;-63
2023/12/07 02:00:36;;;;;;;150.18;104.45;;;;;;;12.59;nan;99140.97;5082402;28;20044;-62
2023/12/07 02:03:06;;;;;;;144.27;104.57;;;;;;;12.57;nan;99145.66;5083609;28;20036;-63
2023/12/07 02:05:37;;;;;;;146.00;102.40;;;;;;;12.71;nan;99151.88;5071659;28;20102;-62
2023/12/07 02:08:07;;;;;;;148.23;102.85;;;;;;;12.73;nan;99157.00;5063767;28;20341;-63
2023/12/07 02:10:36;;;;;;;148.38;102.32;;;;;;;12.76;nan;99159.25;5077952;28;20594;-62
2023/12/07 02:13:06;;;;;;;144.68;103.60;;;;;;;12.79;nan;99145.59;5072083;28;20159;-62
2023/12/07 02:15:37;;;;;;;149.73;104.15;;;;;;;12.74;nan;99150.69;5083294;28;20051;-62
2023/12/07 02:18:16;;;;;;;147.32;103.65;;;;;;;12.79;nan;99148.25;5091858;28;20046;-62
2023/12/07 02:20:48;;;;;;;155.27;107.13;;;;;;;12.79;nan;99161.56;5087675;28;20055;-62
2023/12/07 02:23:18;;;;;;;155.13;106.93;;;;;;;12.94;nan;99156.91;5080807;28;20055;-62
2023/12/07 02:29:20;;;;;;;149.50;104.35;;;;;;;12.94;nan;99157.75;5087005;28;20059;-62
2023/12/07 02:31:50;;;;;;;144.55;103.00;;;;;;;13.01;nan;99158.59;5082789;28;20040;-62
2023/12/07 02:34:19;;;;;;;155.75;108.45;;;;;;;13.14;nan;99165.88;5091222;28;20054;-62
2023/12/07 02:36:54;;;;;;;149.07;103.47;;;;;;;13.29;nan;99171.84;5083640;28;20422;-62
2023/12/07 02:39:25;;;;;;;151.30;103.13;;;;;;;13.33;nan;99175.75;5087809;28;20102;-62
2023/12/07 02:41:56;;;;;;;148.35;103.32;;;;;;;13.36;nan;99170.06;5094279;28;20063;-62
2023/12/07 02:44:26;;;;;;;147.77;104.97;;;;;;;13.40;nan;99175.78;5083519;28;20035;-62
2023/12/07 02:46:58;;;;;;;152.40;105.53;;;;;;;13.50;nan;99182.38;5089877;28;20075;-62
2023/12/07 02:49:28;;;;;;;149.10;103.45;;;;;;;13.49;nan;99186.06;5089411;28;20052;-62
2023/12/07 02:51:57;;;;;;;149.98;102.47;;;;;;;13.60;nan;99183.81;5084634;28;20051;-62
2023/12/07 02:54:27;;;;;;;151.38;103.30;;;;;;;13.69;nan;99190.63;5082929;28;20043;-62
2023/12/07 02:56:56;;;;;;;149.65;102.75;;;;;;;13.80;nan;99192.72;5082214;28;20113;-62
2023/12/07 02:59:25;;;;;;;152.13;104.10;;;;;;;13.85;nan;99203.59;5083381;28;20062;-62
2023/12/07 03:01:55;;;;;;;141.48;103.00;;;;;;;13.93;nan;99216.72;5081988;28;20124;-62
2023/12/07 03:04:24;;;;;;;151.82;103.85;;;;;;;14.12;nan;99223.91;5082166;28;20727;-62
2023/12/07 03:06:54;;;;;;;158.48;104.43;;;;;;;14.29;nan;99222.47;5079453;28;20052;-62
2023/12/07 03:09:23;;;;;;;154.98;103.63;;;;;;;14.38;nan;99228.50;5082699;28;20056;-62
2023/12/07 03:11:53;;;;;;;150.07;104.75;;;;;;;14.46;nan;99232.81;5084803;28;20043;-62
2023/12/07 03:14:22;;;;;;;153.63;101.20;;;;;;;14.70;nan;99237.50;5084116;28;20056;-62
2023/12/07 03:16:52;;;;;;;150.23;100.82;;;;;;;14.86;nan;99233.59;5083865;28;20620;-62
2023/12/07 03:19:21;;;;;;;148.82;99.20;;;;;;;15.28;nan;99235.78;5090285;28;20059;-62
2023/12/07 03:21:50;;;;;;;148.60;96.30;;;;;;;15.53;nan;99239.44;5092366;28;20051;-62
2023/12/07 03:24:20;;;;;;;160.63;100.63;;;;;;;15.97;nan;99246.66;5083184;28;20650;-62
2023/12/07 03:26:49;;;;;;;142.23;97.57;;;;;;;16.46;nan;99250.44;5086783;28;20052;-62
2023/12/07 03:29:19;;;;;;;141.63;97.30;;;;;;;16.72;nan;99255.63;5086203;28;20055;-63
2023/12/07 03:31:48;;;;;;;147.70;98.00;;;;;;;17.13;nan;99262.25;5088128;28;20101;-62
2023/12/07 03:34:18;;;;;;;160.93;101.40;;;;;;;17.81;nan;99266.47;5083874;28;20670;-63
2023/12/07 03:36:48;;;;;;;156.80;97.15;;;;;;;18.34;nan;99271.94;5067568;28;20052;-62
2023/12/07 03:39:25;;;;;;;155.55;102.88;;;;;;;18.47;nan;99270.91;5067034;28;20139;-62
2023/12/07 03:41:54;;;;;;;165.73;106.82;;;;;;;18.85;nan;99263.31;5081114;28;20155;-62
2023/12/07 03:44:26;;;;;;;148.80;103.40;;;;;;;19.49;nan;99266.94;5085802;28;20869;-62
2023/12/07 03:46:55;;;;;;;158.02;103.80;;;;;;;19.57;nan;99263.88;5090184;28;20055;-63
2023/12/07 03:49:25;;;;;;;149.93;103.85;;;;;;;19.84;nan;99268.72;5083458;28;20055;-62
2023/12/07 03:51:55;;;;;;;172.77;106.53;;;;;;;20.28;nan;99264.47;5086726;28;20047;-63
2023/12/07 03:54:24;;;;;;;161.88;106.78;;;;;;;20.15;nan;99269.09;5096335;28;20040;-62
2023/12/07 03:56:53;;;;;;;157.63;108.20;;;;;;;20.33;nan;99270.78;5088018;28;20071;-62
2023/12/07 03:59:23;;;;;;;154.95;108.18;;;;;;;20.76;nan;99259.41;5090641;28;20458;-62
2023/12/07 04:01:52;;;;;;;160.77;111.07;;;;;;;21.33;nan;99270.03;5092655;28;20641;-62
2023/12/07 04:04:22;;;;;;;161.07;108.20;;;;;;;21.40;nan;99268.78;5099580;28;20052;-62
2023/12/07 04:06:51;;;;;;;152.65;105.47;;;;;;;21.92;nan;99273.75;5077964;28;20097;-62
2023/12/07 04:09:20;;;;;;;147.93;102.50;;;;;;;21.61;nan;99269.03;5089635;28;20135;-62
2023/12/07 04:11:50;;;;;;;144.05;100.35;;;;;;;22.13;nan;99261.34;5067795;28;20059;-62
2023/12/07 04:14:20;;;;;;;131.18;91.65;;;;;;;22.95;nan;99264.56;5097467;28;20051;-62
2023/12/07 04:16:50;;;;;;;129.77;92.88;;;;;;;23.08;nan;99272.22;5091836;28;20055;-62
2023/12/07 04:19:19;;;;;;;134.60;92.55;;;;;;;23.32;nan;99267.25;5094433;28;20614;-62
2023/12/07 04:21:49;;;;;;;135.95;88.45;;;;;;;23.35;nan;99269.41;5087158;28;20513;-61
2023/12/07 04:24:18;;;;;;;131.70;90.38;;;;;;;23.14;nan;99267.66;5079614;28;20175;-62
2023/12/07 04:26:49;;;;;;;122.53;89.25;;;;;;;22.56;nan;99269.34;5086963;28;20113;-62
2023/12/07 04:29:18;;;;;;;125.65;85.72;;;;;;;23.18;nan;99272.28;5086937;28;20162;-62
2023/12/07 04:31:47;;;;;;;132.32;89.60;;;;;;;22.83;nan;99272.03;5084327;28;20504;-62
2023/12/07 04:34:17;;;;;;;131.07;91.15;;;;;;;23.05;nan;99266.50;5075989;28;20044;-62
2023/12/07 04:36:47;;;;;;;110.13;81.35;;;;;;;22.93;nan;99268.56;5084450;28;20054;-61
2023/12/07 04:39:16;;;;;;;119.10;83.30;;;;;;;23.02;nan;99272.41;5075769;28;20056;-63
2023/12/07 04:41:45;;;;;;;138.35;84.60;;;;;;;22.71;nan;99272.19;5080457;28;20073;-63
2023/12/07 04:44:15;;;;;;;120.45;83.80;;;;;;;22.42;nan;99267.28;5083804;28;20147;-63
2023/12/07 04:46:45;;;;;;;102.97;78.43;;;;;;;22.17;nan;99275.97;5083280;28;20043;-62
2023/12/07 04:49:14;;;;;;;134.90;90.70;;;;;;;21.82;nan;99282.53;5091297;28;20048;-63
2023/12/07 04:51:46;;;;;;;131.30;92.80;;;;;;;21.58;nan;99278.44;5086277;28;20067;-63
2023/12/07 04:54:16;;;;;;;122.70;87.22;;;;;;;21.25;nan;99273.94;5092803;28;20050;-63
2023/12/07 04:56:47;;;;;;;117.18;81.35;;;;;;;21.50;nan;99265.41;5089116;28;20482;-63
2023/12/07 04:59:17;;;;;;;105.65;77.30;;;;;;;21.72;nan;99273.50;5084109;28;20052;-63
2023/12/07 05:01:47;;;;;;;114.20;79.97;;;;;;;21.80;nan;99270.38;5085639;28;20063;-63
2023/12/07 05:04:17;;;;;;;116.93;80.57;;;;;;;21.69;nan;99274.00;5094985;28;20054;-63
2023/12/07 05:06:48;;;;;;;129.45;90.00;;;;;;;21.56;nan;99263.56;5081216;28;20058;-63
2023/12/07 05:09:17;;;;;;;143.60;94.97;;;;;;;21.41;nan;99270.41;5091364;28;20043;-64
2023/12/07 05:11:47;;;;;;;103.45;75.95;;;;;;;21.23;nan;99270.69;5080686;28;20142;-64
2023/12/07 05:14:16;;;;;;;107.57;72.18;;;;;;;21.28;nan;99269.94;5083081;28;20055;-64
2023/12/07 05:16:48;;;;;;;107.78;73.95;;;;;;;21.19;nan;99266.88;5084419;28;20056;-64
2023/12/07 05:19:17;;;;;;;106.20;74.05;;;;;;;21.21;nan;99269.28;5082904;28;20036;-64
2023/12/07 05:21:47;;;;;;;122.15;82.03;;;;;;;21.17;nan;99260.91;5084009;28;20120;-64
2023/12/07 05:24:18;;;;;;;115.43;75.35;;;;;;;21.19;nan;99261.47;5079619;28;20040;-64
2023/12/07 05:26:48;;;;;;;102.03;71.43;;;;;;;21.18;nan;99251.75;5090285;28;20063;-64
2023/12/07 05:29:19;;;;;;;107.25;72.60;;;;;;;21.29;nan;99248.13;5080744;28;20125;-64
2023/12/07 05:31:52;;;;;;;103.70;70.72;;;;;;;21.29;nan;99241.91;5084089;28;20061;-63
2023/12/07 05:34:21;;;;;;;102.30;70.40;;;;;;;21.25;nan;99238.91;5091671;28;20426;-63
2023/12/07 05:36:51;;;;;;;94.30;63.88;;;;;;;21.26;nan;99237.84;5091177;28;20463;-62
2023/12/07 05:39:20;;;;;;;102.65;67.70;;;;;;;21.18;nan;99240.16;5088232;28;20408;-62
2023/12/07 05:41:50;;;;;;;106.10;71.68;;;;;;;21.32;nan;99236.88;5069640;28;20052;-63
2023/12/07 05:44:22;;;;;;;118.40;79.78;;;;;;;21.44;nan;99240.25;5087890;28;20102;-61
2023/12/07 05:46:51;;;;;;;115.40;74.15;;;;;;;21.56;nan;99240.13;5080796;28;20049;-64
2023/12/07 05:49:22;;;;;;;110.65;78.75;;;;;;;21.66;nan;99239.44;5082010;28;20044;-63
2023/12/07 05:51:52;;;;;;;111.10;77.72;;;;;;;21.76;nan;99228.78;5082915;28;20429;-65
2023/12/07 05:54:22;;;;;;;98.40;67.88;;;;;;;21.93;nan;99230.38;5076419;28;22318;-64
2023/12/07 05:56:51;;;;;;;98.78;63.63;;;;;;;21.84;nan;99217.56;5078257;28;20044;-65
2023/12/07 05:59:20;;;;;;;101.30;64.00;;;;;;;22.08;nan;99218.94;5095376;28;20048;-66
2023/12/07 06:01:53;;;;;;;100.57;62.90;;;;;;;22.18;nan;99213.63;5069406;28;20051;-65
2023/12/07 06:04:23;;;;;;;84.97;58.97;;;;;;;22.21;nan;99199.66;5079124;28;20039;-65
2023/12/07 06:06:52;;;;;;;97.03;61.03;;;;;;;22.36;nan;99191.66;5085192;28;20567;-65
2023/12/07 06:09:22;;;;;;;96.50;64.13;;;;;;;22.25;nan;99191.84;5082326;28;20551;-67
2023/12/07 06:11:52;;;;;;;96.80;59.97;;;;;;;22.41;nan;99188.19;5083746;28;20044;-64
2023/12/07 06:14:22;;;;;;;74.88;53.67;;;;;;;22.46;nan;99176.63;5087135;28;20174;-65
2023/12/07 06:16:52;;;;;;;80.78;52.95;;;;;;;22.80;nan;99186.09;5085173;28;20051;-65
2023/12/07 06:19:22;;;;;;;77.80;51.75;;;;;;;22.79;nan;99182.56;5079888;28;20063;-65
2023/12/07 06:21:51;;;;;;;67.60;46.63;;;;;;;22.70;nan;99172.53;5078100;28;20045;-66
2023/12/07 06:24:26;;;;;;;60.80;45.78;;;;;;;22.69;nan;99165.47;5079893;28;20044;-65
2023/12/07 06:26:55;;;;;;;58.22;42.67;;;;;;;22.80;nan;99165.31;5077848;28;20051;-65
2023/12/07 06:29:25;;;;;;;62.15;45.35;;;;;;;22.96;nan;99152.72;5078829;28;20068;-65
2023/12/07 06:31:58;;;;;;;66.95;44.17;;;;;;;22.98;nan;99155.94;5086597;28;20051;-65
2023/12/07 06:34:28;;;;;;;66.28;46.10;;;;;;;23.08;nan;99149.78;5079269;28;20121;-65
2023/12/07 06:36:58;;;;;;;67.47;47.47;;;;;;;22.94;nan;99154.03;5080067;28;20144;-65
2023/12/07 06:39:27;;;;;;;67.15;46.33;;;;;;;22.54;nan;99162.66;5082510;28;20067;-65
2023/12/07 06:41:56;;;;;;;64.43;46.10;;;;;;;22.63;nan;99155.69;5090055;28;20502;-65
2023/12/07 06:44:26;;;;;;;67.05;45.03;;;;;;;22.82;nan;99148.84;5079666;28;20048;-64
2023/12/07 06:46:55;;;;;;;82.55;46.60;;;;;;;22.98;nan;99147.84;5082786;28;20459;-65
2023/12/07 06:49:25;;;;;;;64.07;43.05;;;;;;;22.83;nan;99150.47;5078333;28;20055;-63
2023/12/07 06:52:06;;;;;;;67.82;43.97;;;;;;;22.97;nan;99140.03;5076081;28;20447;-65
2023/12/07 06:54:36;;;;;;;68.20;47.03;;;;;;;23.03;nan;99142.47;5063610;28;20052;-65
2023/12/07 06:57:08;;;;;;;68.00;43.55;;;;;;;22.87;nan;99135.38;5071465;28;20044;-65
2023/12/07 06:59:38;;;;;;;62.25;44.60;;;;;;;22.82;nan;99138.03;5088153;28;20468;-64
2023/12/07 07:02:07;;;;;;;60.30;43.38;;;;;;;22.63;nan;99139.50;5081196;28;20739;-65
2023/12/07 07:04:37;;;;;;;78.25;44.45;;;;;;;22.57;nan;99135.16;5077176;28;20055;-65
2023/12/07 07:07:06;;;;;;;65.60;41.85;;;;;;;22.81;nan;99128.31;5083698;28;20411;-65
2023/12/07 07:09:36;;;;;;;64.43;41.90;;;;;;;22.64;nan;99119.53;5085557;28;20052;-65
2023/12/07 07:12:06;;;;;;;67.82;43.83;;;;;;;22.64;nan;99114.13;5081679;28;20142;-65
2023/12/07 07:14:36;;;;;;;68.25;46.28;;;;;;;22.71;nan;99114.72;5085891;28;20408;-64
2023/12/07 07:17:06;;;;;;;78.53;49.67;;;;;;;22.82;nan;99101.03;5088860;27;20217;-64
2023/12/07 07:19:35;;;;;;;71.35;49.08;;;;;;;22.86;nan;99100.50;5083305;28;20059;-61
2023/12/07 07:22:04;;;;;;;80.20;53.03;;;;;;;22.82;nan;99097.53;5073209;28;20060;-65
2023/12/07 07:24:34;;;;;;;71.40;49.55;;;;;;;22.96;nan;99100.56;5085754;28;20055;-64
2023/12/07 07:27:05;;;;;;;74.47;49.50;;;;;;;22.86;nan;99087.00;5085942;28;20075;-64
2023/12/07 07:29:35;;;;;;;79.28;50.17;;;;;;;22.87;nan;99080.53;5084026;28;20131;-64
2023/12/07 07:32:05;;;;;;;80.63;53.45;;;;;;;22.86;nan;99074.31;5085200;28;20482;-65
2023/12/07 07:34:35;;;;;;;86.65;55.90;;;;;;;22.72;nan;99071.28;5083100;28;20755;-64
2023/12/07 07:37:06;;;;;;;67.72;49.75;;;;;;;22.86;nan;99050.00;5086348;28;20123;-64
2023/12/07 07:39:36;;;;;;;84.35;54.85;;;;;;;22.88;nan;99047.06;5079295;28;20617;-64
2023/12/07 07:42:06;;;;;;;87.95;54.70;;;;;;;22.80;nan;99041.06;5082057;28;20117;-64
2023/12/07 07:44:36;;;;;;;80.30;53.60;;;;;;;22.79;nan;99039.44;5082351;28;20727;-64
2023/12/07 07:47:05;;;;;;;80.95;53.42;;;;;;;22.73;nan;99037.00;5086485;28;20213;-65
2023/12/07 07:49:35;;;;;;;91.63;54.20;;;;;;;22.72;nan;99030.78;5084743;28;20052;-64
2023/12/07 07:52:05;;;;;;;87.75;51.83;;;;;;;22.81;nan;99023.78;5077996;28;20463;-65
2023/12/07 07:54:34;;;;;;;77.32;51.80;;;;;;;22.70;nan;99014.00;5086081;28;20131;-64
2023/12/07 07:57:04;;;;;;;84.50;53.22;;;;;;;22.67;nan;99013.69;5087649;28;20132;-64
2023/12/07 07:59:33;;;;;;;71.68;48.22;;;;;;;22.68;nan;99012.63;5084894;28;20138;-64
2023/12/07 08:02:03;;;;;;;68.03;47.47;;;;;;;22.76;nan;99004.03;5086381;28;20059;-65
2023/12/07 08:04:32;;;;;;;78.78;51.35;;;;;;;22.76;nan;99002.16;5082785;28;20040;-64
2023/12/07 08:07:02;;;;;;;71.25;48.03;;;;;;;22.77;nan;98992.16;5085849;28;20336;-67
2023/12/07 08:09:31;;;;;;;68.28;47.65;;;;;;;22.84;nan;98981.91;5085435;28;20139;-66
2023/12/07 08:12:01;;;;;;;67.15;41.88;;;;;;;22.72;nan;98984.88;5083687;28;20040;-65
2023/12/07 08:14:30;;;;;;;62.50;37.17;;;;;;;22.70;nan;98976.19;5086195;28;20368;-65
2023/12/07 08:16:59;;;;;;;57.17;37.13;;;;;;;;;;5081273;28;20127;-64
2023/12/07 08:19:29;;;;;;;53.67;34.92;;;;;;;22.66;nan;98972.38;5083312;28;20546;-66
2023/12/07 08:21:58;;;;;;;62.17;36.55;;;;;;;22.64;nan;98966.44;5091408;28;20448;-65
2023/12/07 08:24:28;;;;;;;51.65;34.92;;;;;;;22.65;nan;98961.84;5088798;28;20079;-65
2023/12/07 08:26:57;;;;;;;51.38;31.88;;;;;;;22.68;nan;98958.63;5069033;28;20503;-65
2023/12/07 08:29:27;;;;;;;46.25;30.38;;;;;;;22.69;nan;98949.44;5086225;28;20078;-65
2023/12/07 08:31:56;;;;;;;43.63;31.13;;;;;;;22.73;nan;98948.69;5082202;28;20048;-65
2023/12/07 08:34:26;;;;;;;39.65;27.33;;;;;;;22.71;nan;98942.72;5070533;28;20345;-65
2023/12/07 08:36:56;;;;;;;51.38;28.80;;;;;;;22.66;nan;98942.66;5083679;28;20044;-65
2023/12/07 08:39:26;;;;;;;43.50;27.90;;;;;;;22.66;nan;98934.56;5081031;28;20124;-65
2023/12/07 08:41:55;;;;;;;40.45;28.55;;;;;;;22.64;nan;98925.13;5079480;28;20044;-65
2023/12/07 08:44:24;;;;;;;45.42;29.63;;;;;;;;;;5083921;28;20730;-66
2023/12/07 08:46:54;;;;;;;37.70;24.85;;;;;;;22.66;nan;98917.59;5084739;28;20044;-64
2023/12/07 08:49:23;;;;;;;39.45;25.48;;;;;;;22.70;nan;98916.00;5083434;28;20754;-65
2023/12/07 08:51:53;;;;;;;35.05;24.75;;;;;;;;;;5085949;28;20449;-64
2023/12/07 08:54:42;;;;;;;41.17;26.33;;;;;;;22.68;nan;98915.41;5053096;28;20047;-64
2023/12/07 08:57:11;;;;;;;43.97;26.92;;;;;;;22.65;nan;98910.56;5085895;28;20416;-64
2023/12/07 08:59:41;;;;;;;43.55;27.83;;;;;;;22.65;nan;98910.56;5085746;28;20039;-64
2023/12/07 09:02:10;;;;;;;47.55;27.77;;;;;;;22.62;nan;98909.19;5085150;28;20668;-64
2023/12/07 09:04:40;;;;;;;37.45;27.02;;;;;;;22.60;nan;98913.22;5082520;28;20043;-65
2023/12/07 09:07:11;;;;;;;43.55;27.60;;;;;;;22.55;nan;98914.03;5081211;28;20669;-64
2023/12/07 09:09:46;;;;;;;42.38;24.17;;;;;;;22.51;nan;98907.53;5091102;28;20212;-65
2023/12/07 09:12:16;;;;;;;37.22;24.70;;;;;;;22.53;nan;98907.25;5083319;28;20050;-64
2023/12/07 09:14:51;;;;;;;36.47;24.17;;;;;;;22.49;nan;98909.69;5069326;28;20052;-64
2023/12/07 09:17:20;;;;;;;38.03;27.60;;;;;;;22.51;nan;98904.03;5082382;28;20359;-64
2023/12/07 09:19:50;;;;;;;46.72;27.60;;;;;;;22.52;nan;98900.25;5091310;28;20438;-65
2023/12/07 09:22:20;;;;;;;34.90;24.38;;;;;;;22.49;nan;98900.75;5092730;28;20035;-64
2023/12/07 09:24:56;;;;;;;36.60;22.48;;;;;;;22.48;nan;98894.56;5093415;28;20522;-65
2023/12/07 09:27:26;;;;;;;32.70;22.10;;;;;;;22.46;nan;98902.13;5100344;28;20067;-65
2023/12/07 09:29:55;;;;;;;34.15;21.50;;;;;;;22.44;nan;98898.06;5091291;28;20446;-65
2023/12/07 09:32:25;;;;;;;37.70;23.05;;;;;;;22.34;nan;98888.84;5093156;28;20047;-65
2023/12/07 09:35:00;;;;;;;35.65;23.67;;;;;;;22.34;nan;98888.84;5086324;28;20043;-65
2023/12/07 09:37:30;;;;;;;35.80;22.45;;;;;;;22.31;nan;98883.16;5097453;28;20048;-65
2023/12/07 09:40:00;;;;;;;34.67;23.13;;;;;;;22.29;nan;98890.72;5056638;28;20441;-65
2023/12/07 09:42:29;;;;;;;32.38;23.15;;;;;;;22.25;nan;98885.03;5095679;28;20095;-65
2023/12/07 09:45:04;;;;;;;37.28;22.52;;;;;;;22.22;nan;98890.94;5091437;28;20141;-65
2023/12/07 09:47:37;;;;;;;38.05;22.42;;;;;;;22.18;nan;98887.16;5088015;28;20032;-65
2023/12/07 09:50:09;;;;;;;33.70;21.65;;;;;;;22.15;nan;98893.09;5070449;28;20040;-65
2023/12/07 09:52:39;;;;;;;28.73;20.98;;;;;;;22.13;nan;98887.13;5090453;28;20105;-65
2023/12/07 09:55:14;;;;;;;34.17;20.90;;;;;;;22.09;nan;98887.91;5090095;28;20039;-65
2023/12/07 09:57:43;;;;;;;28.63;21.90;;;;;;;22.10;nan;98884.16;5071071;28;20044;-65
2023/12/07 10:00:17;;;;;;;32.03;21.42;;;;;;;22.08;nan;98880.91;5094461;28;20032;-65
2023/12/07 10:02:47;;;;;;;33.63;23.00;;;;;;;22.04;nan;98879.81;5089742;28;20693;-64
2023/12/07 10:05:19;;;;;;;31.98;23.73;;;;;;;22.03;nan;98881.69;5057699;28;20220;-64
2023/12/07 10:07:50;;;;;;;33.42;22.10;;;;;;;22.02;nan;98884.66;5092213;28;20044;-65
2023/12/07 10:10:20;;;;;;;33.95;23.10;;;;;;;21.92;nan;98880.81;5096125;28;20067;-64
2023/12/07 10:12:57;;;;;;;28.67;18.55;;;;;;;21.87;nan;98878.06;5094863;28;20048;-65
2023/12/07 10:15:28;;;;;;;31.45;17.60;;;;;;;21.80;nan;98873.97;5046831;28;20124;-65
2023/12/07 10:17:59;;;;;;;27.58;20.52;;;;;;;21.80;nan;98877.50;5077259;28;20100;-65
2023/12/07 10:20:30;;;;;;;31.95;20.40;;;;;;;21.77;nan;98877.22;5093053;28;20036;-65
2023/12/07 10:23:09;;;;;;;29.58;21.23;;;;;;;21.70;nan;98871.22;5066746;28;20036;-65
2023/12/07 10:25:41;;;;;;;27.80;18.40;;;;;;;21.65;nan;98877.38;5102818;28;20047;-65
2023/12/07 10:28:12;;;;;;;28.05;19.45;;;;;;;21.56;nan;98870.03;5092532;28;20051;-66
2023/12/07 10:30:43;;;;;;;29.63;21.65;;;;;;;21.52;nan;98881.34;5062869;28;20156;-66
2023/12/07 10:33:16;;;;;;;28.73;21.00;;;;;;;21.37;nan;98875.84;5084035;28;20048;-66
2023/12/07 10:35:48;;;;;;;31.70;19.10;;;;;;;21.24;nan;98873.59;5100319;28;20075;-66
2023/12/07 10:38:19;;;;;;;31.05;19.00;;;;;;;21.16;nan;98870.53;5095999;28;20079;-65
2023/12/07 10:41:00;;;;;;;31.85;21.15;;;;;;;21.11;nan;98871.28;5086336;28;20097;-66
2023/12/07 10:43:32;;;;;;;29.45;19.25;;;;;;;21.11;nan;98873.97;5085263;28;20051;-66
2023/12/07 10:46:04;;;;;;;27.93;20.20;;;;;;;21.05;nan;98875.00;5081443;28;20670;-68
2023/12/07 10:48:35;;;;;;;37.08;22.00;;;;;;;21.01;nan;98869.34;5086435;28;20639;-66
2023/12/07 10:51:08;;;;;;;32.55;20.83;;;;;;;20.93;nan;98874.38;5087296;28;20529;-66
2023/12/07 10:53:43;;;;;;;35.33;20.80;;;;;;;20.89;nan;98876.72;5088250;28;20044;-65
2023/12/07 10:56:28;;;;;;;31.98;20.50;;;;;;;20.86;nan;98871.88;5090150;28;20050;-66
2023/12/07 10:58:59;;;;;;;30.48;21.80;;;;;;;20.86;nan;98869.19;5095043;28;20434;-65
2023/12/07 11:01:30;;;;;;;29.60;19.70;;;;;;;20.76;nan;98865.56;5095197;28;20048;-65
2023/12/07 11:04:02;;;;;;;34.45;21.63;;;;;;;20.66;nan;98860.91;5095636;28;20159;-66
2023/12/07 11:06:33;;;;;;;36.15;20.33;;;;;;;20.60;nan;98856.53;5097633;28;20116;-65
2023/12/07 11:09:08;;;;;;;31.92;20.33;;;;;;;20.52;nan;98857.00;5096650;28;20092;-66
2023/12/07 11:11:51;;;;;;;27.92;18.30;;;;;;;20.49;nan;98850.22;5089797;28;20059;-66
2023/12/07 11:14:21;;;;;;;32.72;20.52;;;;;;;20.54;nan;98852.97;5080178;28;20059;-66
2023/12/07 11:16:53;;;;;;;34.13;21.20;;;;;;;20.47;nan;98846.97;5088398;28;20040;-65
2023/12/07 11:19:39;;;;;;;32.15;21.25;;;;;;;20.38;nan;98848.50;5090632;28;20075;-65
2023/12/07 11:22:13;;;;;;;29.55;19.30;;;;;;;20.29;nan;98843.78;5093430;28;20075;-65
2023/12/07 11:25:02;;;;;;;31.60;20.95;;;;;;;20.31;nan;98842.50;5095156;28;20652;-65
2023/12/07 11:27:34;;;;;;;29.77;20.10;;;;;;;20.31;nan;98837.13;5092045;28;20449;-65
2023/12/07 11:30:04;;;;;;;31.90;21.38;;;;;;;20.30;nan;98843.56;5073856;28;20603;-65
2023/12/07 11:32:34;;;;;;;28.92;20.63;;;;;;;20.22;nan;98837.78;5070360;28;20149;-65
2023/12/07 11:35:04;;;;;;;30.40;20.35;;;;;;;20.16;nan;98839.59;5065537;28;20127;-65
2023/12/07 11:38:14;;;;;;;41.95;20.25;;;;;;;20.03;nan;98834.59;5067419;28;20048;-65
2023/12/07 11:40:44;;;;;;;32.95;19.88;;;;;;;19.84;nan;98835.94;5077910;28;20056;-65
2023/12/07 11:43:44;;;;;;;35.70;20.60;;;;;;;19.84;nan;98831.38;5066322;28;20052;-65
2023/12/07 11:46:14;;;;;;;35.38;20.27;;;;;;;19.69;nan;98836.59;5071843;28;20048;-65